Relevés horaires Pilatus (Suisse)


Relevés horaires à Pilatus - Lundi 20 Nov. 2006
Heure UTC1 Température [°C] Vent [km/h] Hum. [%] Pres.4 [hPa] Visi. [Km] Nébu. [octa] Préc.5 [mm] Cond.
2m. Res. Ros. Dir.2 Vit. Moy. Raf.3
23:00 0.0 -6 -22.0 O 25.9 33.3 63.0 17 850(-1.3/3h) -- -- -- --
22:00 -0.1 -5.7 -26.7 O 22.2 33.3 63.0 11 850(-1.3/3h) -- -- -- --
21:00 0.4 -5.5 -25.5 SO 25.9 37.0 55.6 12 850(-1.0/3h) -- -- -- --
20:00 0.1 -6.5 -26.7 SO 31.5 33.3 53.7 11 850(-0.9/3h) -- -- -- --
19:00 0.1 -5.2 -29.2 O 20.4 37.0 50.0 9 850(-0.6/3h) -- -- -- --
18:00 -0.7 -7.9 -25.9 S 35.2 37.0 48.2 13 850(-0.7/3h) -- -- 0/0h
--
17:00 -0.7 -7.3 -25.0 SSO 29.6 33.3 40.7 14 850(-1.0/3h) -- -- -- --
16:00 -0.8 -7.7 -25.1 SSO 31.5 31.5 40.7 14 850(-1.3/3h) -- -- -- --
15:00 -0.4 -5.8 -28.8 SO 20.4 24.1 48.2 9 850(-1.6/3h) -- -- -- --
14:00 -0.1 -5.4 -17.9 SO 20.4 24.1 48.2 25 850(-1.6/3h) -- -- -- --
13:00 -0.4 -5.5 -13.3 O 18.5 24.1 48.2 37 850(-1.3/3h) -- -- -- --
12:00 -0.4 -6.1 -22.2 O 22.2 27.8 48.2 17 850(-0.5/3h) -- -- 0/0h
--
11:00 -1.6 -7 -10.7 SO 18.5 20.4 37.0 50 850(0.0/3h) -- -- -- --
10:00 -3.2 -8.7 -6.4 OSO 16.7 22.2 42.6 78 850(0.4/3h) -- -- -- --
09:00 -3.4 -9.9 -6.5 ONO 22.2 27.8 46.3 79 850(0.0/3h) -- -- -- --
08:00 -5.0 -11.3 -7.5 ONO 18.5 24.1 46.3 83 850 -- -- -- --
07:00 -5.0 -11.9 -7.9 O 22.2 -- -- 80 850 -- -- -- --
06:00 -4.5 -11.3 -5.9 O 22.2 -- -- 90 850 -- -- -- --
05:00 -3.5 -9.7 -4.2 S 20.4 -- -- 95 850 -- -- -- --
04:00 -4.3 -11.3 -4.5 S 24.1 -- -- 99 850 -- -- -- --
03:00 -4.3 -11 -4.3 O 22.2 29.6 46.3 100 850(-0.7/3h) -- -- -- --
02:00 -4.5 -9.5 -4.6 O 13.0 22.2 38.9 99 850(-0.8/3h) -- -- -- --
01:00 -3.9 -10.2 -4.1 O 20.4 20.4 40.7 99 850(-0.8/3h) -- -- -- --
00:00 -3.8 -9.4 -3.8 OSO 16.7 31.5 51.9 100 850(-0.4/3h) -- -- 6/6h
--

1 Coordinated Universal Time. Actuellement il est 21:00 locale et 19:00 UTC.

2 Le vent souffle depuis la direction indiquée vers la direction oposée.

3 Les rafales max. sont disponible 40 min après l'heure du relevé.

4 Pour les stations d'altitude (plus de 600m) le géopotentiel du niveau le plus proche de la pression obligatoire est indiqué.

5 Les stations disposant d'un diffuseur peuvent indiquer "trace". Cela signifie que des précipitations ont touchés le sol mais que la quantité est inférieure à 0.1 mm.

Copyright

Les données affichées sur cette page sont la propriété exclusive de Météo Suisse.

Récapitulatif de la journée
Température [°C] Vent [km/h] Ensoleillement4 [h] Precipitations totale5 [mm] Pression [Hpa]
Min1 Max.2 Moy.3 Max. Min Max.
-- -- 28.7 63.0 8 h 6 min 0 850.0 850.0

1 Température minimale relevée entre 18:00 UTC la veille et 18:00 UTC le jour donné.

2 Température maximale relevée entre 06:00 UTC le jour donné et 06:00 UTC le lendemain.

3 Vent moyen de la journée basé sur les relevés horaires.

4 Ensoleillement en heures relevé entre 06:00 UTC la veille et 06:00 UTC le jour donné.

5 Précipitations totales tombées entre 06:00 UTC la jour donné et 06:00 UTC le lendemain.

Graphiques horaires